sensor_id;sensor_type;location;lat;lon;timestamp;pressure;altitude;pressure_sealevel;temperature;humidity
7182;BME280;3632;42.724;23.298;2022-10-26T00:01:59;95836.25;;;18.24;67.53
7182;BME280;3632;42.724;23.298;2022-10-26T00:04:26;95836.38;;;18.23;67.76
7182;BME280;3632;42.724;23.298;2022-10-26T00:06:53;95775.22;;;17.82;67.66
7182;BME280;3632;42.724;23.298;2022-10-26T00:09:19;95774.91;;;17.85;67.59
7182;BME280;3632;42.724;23.298;2022-10-26T00:11:46;95833.44;;;18.18;68.10
7182;BME280;3632;42.724;23.298;2022-10-26T00:14:13;95834.41;;;18.17;67.91
7182;BME280;3632;42.724;23.298;2022-10-26T00:16:40;95835.25;;;18.00;68.34
7182;BME280;3632;42.724;23.298;2022-10-26T00:19:08;95837.38;;;18.04;68.56
7182;BME280;3632;42.724;23.298;2022-10-26T00:21:34;95841.25;;;18.00;68.67
7182;BME280;3632;42.724;23.298;2022-10-26T00:24:01;95792.84;;;17.68;68.81
7182;BME280;3632;42.724;23.298;2022-10-26T00:26:28;95838.28;;;17.95;68.77
7182;BME280;3632;42.724;23.298;2022-10-26T00:28:55;95836.06;;;17.74;69.90
7182;BME280;3632;42.724;23.298;2022-10-26T00:31:23;95833.25;;;17.86;69.90
7182;BME280;3632;42.724;23.298;2022-10-26T00:33:51;95847.81;;;17.69;69.88
7182;BME280;3632;42.724;23.298;2022-10-26T00:36:20;95649.34;;;16.64;69.63
7182;BME280;3632;42.724;23.298;2022-10-26T00:38:48;95829.00;;;17.76;70.51
7182;BME280;3632;42.724;23.298;2022-10-26T00:41:16;95834.75;;;17.70;70.15
7182;BME280;3632;42.724;23.298;2022-10-26T00:43:44;95831.13;;;17.81;70.19
7182;BME280;3632;42.724;23.298;2022-10-26T00:46:12;95837.09;;;17.82;70.48
7182;BME280;3632;42.724;23.298;2022-10-26T00:48:43;95794.16;;;17.55;70.47
7182;BME280;3632;42.724;23.298;2022-10-26T00:51:17;95829.94;;;17.75;70.62
7182;BME280;3632;42.724;23.298;2022-10-26T00:53:47;95832.84;;;17.72;70.88
7182;BME280;3632;42.724;23.298;2022-10-26T00:56:15;95832.03;;;17.72;70.92
7182;BME280;3632;42.724;23.298;2022-10-26T00:58:43;95835.03;;;17.67;70.99
7182;BME280;3632;42.724;23.298;2022-10-26T01:01:10;95825.41;;;17.69;71.04
7182;BME280;3632;42.724;23.298;2022-10-26T01:03:37;95831.88;;;17.73;70.92
7182;BME280;3632;42.724;23.298;2022-10-26T01:06:04;95827.19;;;17.69;70.95
7182;BME280;3632;42.724;23.298;2022-10-26T01:08:32;95704.78;;;16.76;71.20
7182;BME280;3632;42.724;23.298;2022-10-26T01:11:00;95808.44;;;17.49;71.21
7182;BME280;3632;42.724;23.298;2022-10-26T01:13:29;95808.31;;;17.51;71.30
7182;BME280;3632;42.724;23.298;2022-10-26T01:16:08;95829.31;;;17.73;70.91
7182;BME280;3632;42.724;23.298;2022-10-26T01:18:40;95807.81;;;17.47;71.09
7182;BME280;3632;42.724;23.298;2022-10-26T01:21:20;95824.53;;;17.61;71.02
7182;BME280;3632;42.724;23.298;2022-10-26T01:27:01;95799.34;;;17.37;71.30
7182;BME280;3632;42.724;23.298;2022-10-26T01:30:10;95829.53;;;17.62;71.05
7182;BME280;3632;42.724;23.298;2022-10-26T01:32:41;95826.56;;;17.57;70.89
7182;BME280;3632;42.724;23.298;2022-10-26T01:35:13;95833.94;;;17.52;71.29
7182;BME280;3632;42.724;23.298;2022-10-26T01:37:46;95814.41;;;17.50;71.41
7182;BME280;3632;42.724;23.298;2022-10-26T01:40:17;95759.00;;;17.10;71.46
7182;BME280;3632;42.724;23.298;2022-10-26T01:42:48;95828.84;;;17.25;72.46
7182;BME280;3632;42.724;23.298;2022-10-26T01:45:19;95816.19;;;17.31;72.11
7182;BME280;3632;42.724;23.298;2022-10-26T01:47:46;95817.59;;;17.26;71.90
7182;BME280;3632;42.724;23.298;2022-10-26T01:50:15;95819.50;;;17.24;71.94
7182;BME280;3632;42.724;23.298;2022-10-26T01:52:46;95801.38;;;16.80;72.59
7182;BME280;3632;42.724;23.298;2022-10-26T01:55:43;95811.13;;;17.04;72.62
7182;BME280;3632;42.724;23.298;2022-10-26T01:58:20;95824.28;;;16.83;73.04
7182;BME280;3632;42.724;23.298;2022-10-26T02:00:59;95807.50;;;16.79;73.08
7182;BME280;3632;42.724;23.298;2022-10-26T02:03:39;95740.16;;;16.29;73.13
7182;BME280;3632;42.724;23.298;2022-10-26T02:06:15;95816.22;;;16.69;72.93
7182;BME280;3632;42.724;23.298;2022-10-26T02:08:55;95684.09;;;15.78;72.67
7182;BME280;3632;42.724;23.298;2022-10-26T02:11:31;95819.31;;;16.72;72.02
7182;BME280;3632;42.724;23.298;2022-10-26T02:14:10;95822.59;;;16.55;72.16
7182;BME280;3632;42.724;23.298;2022-10-26T02:16:44;95823.19;;;16.49;72.55
7182;BME280;3632;42.724;23.298;2022-10-26T02:19:24;95816.03;;;16.43;72.83
7182;BME280;3632;42.724;23.298;2022-10-26T02:21:56;95839.63;;;16.38;72.64
7182;BME280;3632;42.724;23.298;2022-10-26T02:24:27;95762.16;;;15.77;73.24
7182;BME280;3632;42.724;23.298;2022-10-26T02:26:55;95630.78;;;14.87;73.53
7182;BME280;3632;42.724;23.298;2022-10-26T02:29:24;95678.03;;;15.14;73.68
7182;BME280;3632;42.724;23.298;2022-10-26T02:31:53;95813.25;;;15.99;74.07
7182;BME280;3632;42.724;23.298;2022-10-26T02:34:24;95832.19;;;15.98;74.45
7182;BME280;3632;42.724;23.298;2022-10-26T02:36:55;95824.91;;;15.84;75.41
7182;BME280;3632;42.724;23.298;2022-10-26T02:39:25;95783.56;;;15.59;75.40
7182;BME280;3632;42.724;23.298;2022-10-26T02:41:53;95736.00;;;15.06;76.02
7182;BME280;3632;42.724;23.298;2022-10-26T02:44:24;95831.69;;;15.47;76.44
7182;BME280;3632;42.724;23.298;2022-10-26T02:46:54;95836.03;;;15.27;77.65
7182;BME280;3632;42.724;23.298;2022-10-26T02:49:21;95835.47;;;15.14;78.50
7182;BME280;3632;42.724;23.298;2022-10-26T02:51:50;95832.47;;;15.09;78.97
7182;BME280;3632;42.724;23.298;2022-10-26T02:54:24;95861.25;;;14.93;79.20
7182;BME280;3632;42.724;23.298;2022-10-26T02:56:54;95842.72;;;14.80;80.09
7182;BME280;3632;42.724;23.298;2022-10-26T02:59:26;95855.94;;;14.76;80.34
7182;BME280;3632;42.724;23.298;2022-10-26T03:01:56;95863.22;;;14.71;80.58
7182;BME280;3632;42.724;23.298;2022-10-26T03:04:28;95862.38;;;14.70;81.18
7182;BME280;3632;42.724;23.298;2022-10-26T03:06:55;95826.66;;;14.48;82.05
7182;BME280;3632;42.724;23.298;2022-10-26T03:09:22;95859.56;;;14.73;82.15
7182;BME280;3632;42.724;23.298;2022-10-26T03:11:48;95847.00;;;14.70;82.97
7182;BME280;3632;42.724;23.298;2022-10-26T03:14:15;95867.59;;;14.89;82.66
7182;BME280;3632;42.724;23.298;2022-10-26T03:16:42;95869.88;;;14.92;82.83
7182;BME280;3632;42.724;23.298;2022-10-26T03:19:10;95868.13;;;14.93;82.37
7182;BME280;3632;42.724;23.298;2022-10-26T03:21:37;95885.56;;;14.99;82.57
7182;BME280;3632;42.724;23.298;2022-10-26T03:24:07;95874.09;;;15.13;82.16
7182;BME280;3632;42.724;23.298;2022-10-26T03:26:35;95810.25;;;14.70;82.32
7182;BME280;3632;42.724;23.298;2022-10-26T03:29:02;95860.53;;;14.42;81.63
7182;BME280;3632;42.724;23.298;2022-10-26T03:31:29;95470.63;;;12.05;81.54
7182;BME280;3632;42.724;23.298;2022-10-26T03:33:55;95877.75;;;15.20;81.63
7182;BME280;3632;42.724;23.298;2022-10-26T03:36:24;95871.41;;;15.24;80.81
7182;BME280;3632;42.724;23.298;2022-10-26T03:38:50;95880.72;;;15.15;80.94
7182;BME280;3632;42.724;23.298;2022-10-26T03:41:17;95800.56;;;14.33;80.73
7182;BME280;3632;42.724;23.298;2022-10-26T03:43:44;95876.81;;;15.21;80.52
7182;BME280;3632;42.724;23.298;2022-10-26T03:46:11;95879.66;;;15.18;80.58
7182;BME280;3632;42.724;23.298;2022-10-26T03:48:37;95880.59;;;15.17;80.71
7182;BME280;3632;42.724;23.298;2022-10-26T03:51:04;95888.44;;;15.25;80.67
7182;BME280;3632;42.724;23.298;2022-10-26T03:53:32;95881.44;;;15.27;80.80
7182;BME280;3632;42.724;23.298;2022-10-26T03:55:59;95881.28;;;15.38;80.66
7182;BME280;3632;42.724;23.298;2022-10-26T03:58:26;95891.56;;;15.38;80.50
7182;BME280;3632;42.724;23.298;2022-10-26T04:00:53;95879.53;;;15.38;80.52
7182;BME280;3632;42.724;23.298;2022-10-26T04:03:19;95876.44;;;15.35;80.85
7182;BME280;3632;42.724;23.298;2022-10-26T04:05:46;95885.06;;;15.34;81.07
7182;BME280;3632;42.724;23.298;2022-10-26T04:08:13;95781.13;;;14.80;81.05
7182;BME280;3632;42.724;23.298;2022-10-26T04:10:41;95843.03;;;15.25;80.77
7182;BME280;3632;42.724;23.298;2022-10-26T04:13:09;95887.28;;;15.58;80.76
7182;BME280;3632;42.724;23.298;2022-10-26T04:15:37;95886.34;;;15.68;80.35
7182;BME280;3632;42.724;23.298;2022-10-26T04:18:03;95876.59;;;15.72;80.45
7182;BME280;3632;42.724;23.298;2022-10-26T04:20:32;95886.06;;;15.62;80.58
7182;BME280;3632;42.724;23.298;2022-10-26T04:23:03;95786.53;;;15.16;80.37
7182;BME280;3632;42.724;23.298;2022-10-26T04:25:31;95885.53;;;15.87;80.21
7182;BME280;3632;42.724;23.298;2022-10-26T04:28:00;95887.41;;;15.75;80.61
7182;BME280;3632;42.724;23.298;2022-10-26T04:30:27;95879.28;;;15.89;80.56
7182;BME280;3632;42.724;23.298;2022-10-26T04:32:54;95882.94;;;15.77;81.16
7182;BME280;3632;42.724;23.298;2022-10-26T04:35:21;95887.69;;;15.72;81.47
7182;BME280;3632;42.724;23.298;2022-10-26T04:37:47;95831.31;;;15.61;80.86
7182;BME280;3632;42.724;23.298;2022-10-26T04:40:15;95875.66;;;15.82;80.73
7182;BME280;3632;42.724;23.298;2022-10-26T04:42:43;95892.66;;;16.03;80.30
7182;BME280;3632;42.724;23.298;2022-10-26T04:45:12;95902.81;;;15.94;80.61
7182;BME280;3632;42.724;23.298;2022-10-26T04:47:39;95894.19;;;15.86;80.75
7182;BME280;3632;42.724;23.298;2022-10-26T04:50:07;95904.72;;;15.64;81.60
7182;BME280;3632;42.724;23.298;2022-10-26T04:52:34;95905.25;;;15.58;82.32
7182;BME280;3632;42.724;23.298;2022-10-26T04:55:01;95909.59;;;15.57;82.09
7182;BME280;3632;42.724;23.298;2022-10-26T04:57:30;95908.25;;;15.53;82.58
7182;BME280;3632;42.724;23.298;2022-10-26T04:59:58;95907.84;;;15.67;81.77
7182;BME280;3632;42.724;23.298;2022-10-26T05:02:26;95907.56;;;15.70;81.46
7182;BME280;3632;42.724;23.298;2022-10-26T05:04:53;95903.50;;;15.77;80.87
7182;BME280;3632;42.724;23.298;2022-10-26T05:07:20;95893.38;;;15.57;81.17
7182;BME280;3632;42.724;23.298;2022-10-26T05:09:47;95884.94;;;15.45;81.19
7182;BME280;3632;42.724;23.298;2022-10-26T05:12:14;95632.03;;;13.46;81.15
7182;BME280;3632;42.724;23.298;2022-10-26T05:14:40;95920.56;;;15.59;81.42
7182;BME280;3632;42.724;23.298;2022-10-26T05:17:07;95910.53;;;15.56;81.40
7182;BME280;3632;42.724;23.298;2022-10-26T05:19:35;95925.91;;;15.37;82.17
7182;BME280;3632;42.724;23.298;2022-10-26T05:22:02;95926.56;;;15.29;82.82
7182;BME280;3632;42.724;23.298;2022-10-26T05:24:29;95922.75;;;15.24;83.49
7182;BME280;3632;42.724;23.298;2022-10-26T05:26:56;95913.84;;;15.18;83.86
7182;BME280;3632;42.724;23.298;2022-10-26T05:29:23;95808.47;;;14.51;83.79
7182;BME280;3632;42.724;23.298;2022-10-26T05:31:50;95928.19;;;15.21;83.80
7182;BME280;3632;42.724;23.298;2022-10-26T05:34:17;95920.38;;;15.32;83.11
7182;BME280;3632;42.724;23.298;2022-10-26T05:36:45;95838.97;;;15.03;81.48
7182;BME280;3632;42.724;23.298;2022-10-26T05:39:11;95864.53;;;15.15;80.65
7182;BME280;3632;42.724;23.298;2022-10-26T05:41:38;95942.81;;;15.39;81.20
7182;BME280;3632;42.724;23.298;2022-10-26T05:44:05;95919.81;;;15.19;82.09
7182;BME280;3632;42.724;23.298;2022-10-26T05:46:32;95940.34;;;15.19;82.84
7182;BME280;3632;42.724;23.298;2022-10-26T05:48:58;95927.31;;;15.01;83.17
7182;BME280;3632;42.724;23.298;2022-10-26T05:51:25;95948.19;;;15.27;82.79
7182;BME280;3632;42.724;23.298;2022-10-26T05:53:53;95952.25;;;15.29;82.33
7182;BME280;3632;42.724;23.298;2022-10-26T05:56:33;95953.00;;;15.50;81.31
7182;BME280;3632;42.724;23.298;2022-10-26T05:59:01;95944.34;;;15.51;81.28
7182;BME280;3632;42.724;23.298;2022-10-26T06:01:34;95961.78;;;15.58;81.13
7182;BME280;3632;42.724;23.298;2022-10-26T06:04:17;95986.28;;;15.52;81.13
7182;BME280;3632;42.724;23.298;2022-10-26T06:06:50;95973.44;;;15.52;81.66
7182;BME280;3632;42.724;23.298;2022-10-26T06:09:21;95969.22;;;15.51;81.73
7182;BME280;3632;42.724;23.298;2022-10-26T06:11:51;95866.19;;;14.85;81.96
7182;BME280;3632;42.724;23.298;2022-10-26T06:14:19;95972.91;;;15.68;81.57
7182;BME280;3632;42.724;23.298;2022-10-26T06:16:59;95971.56;;;15.73;81.71
7182;BME280;3632;42.724;23.298;2022-10-26T06:19:38;95965.59;;;15.73;81.17
7182;BME280;3632;42.724;23.298;2022-10-26T06:22:19;95973.88;;;15.86;81.31
7182;BME280;3632;42.724;23.298;2022-10-26T06:24:59;95968.31;;;15.90;81.33
7182;BME280;3632;42.724;23.298;2022-10-26T06:27:36;95976.69;;;16.02;80.89
7182;BME280;3632;42.724;23.298;2022-10-26T06:30:07;95975.06;;;16.11;80.48
7182;BME280;3632;42.724;23.298;2022-10-26T06:32:36;95975.72;;;16.13;80.28
7182;BME280;3632;42.724;23.298;2022-10-26T06:35:14;95973.56;;;16.27;79.97
7182;BME280;3632;42.724;23.298;2022-10-26T06:37:45;95860.22;;;15.63;79.56
7182;BME280;3632;42.724;23.298;2022-10-26T06:40:15;95972.56;;;16.48;79.13
7182;BME280;3632;42.724;23.298;2022-10-26T06:42:42;95983.13;;;16.54;78.61
7182;BME280;3632;42.724;23.298;2022-10-26T06:45:11;95978.56;;;16.58;78.37
7182;BME280;3632;42.724;23.298;2022-10-26T06:47:42;95944.75;;;16.14;78.35
7182;BME280;3632;42.724;23.298;2022-10-26T06:50:23;95988.81;;;16.67;78.24
7182;BME280;3632;42.724;23.298;2022-10-26T06:52:59;95978.38;;;16.69;78.30
7182;BME280;3632;42.724;23.298;2022-10-26T06:55:38;95918.31;;;16.22;78.41
7182;BME280;3632;42.724;23.298;2022-10-26T06:58:10;95991.78;;;16.72;78.36
7182;BME280;3632;42.724;23.298;2022-10-26T07:00:39;95992.16;;;16.87;77.78
7182;BME280;3632;42.724;23.298;2022-10-26T07:03:06;95988.34;;;16.81;78.16
7182;BME280;3632;42.724;23.298;2022-10-26T07:05:33;95930.59;;;16.47;78.31
7182;BME280;3632;42.724;23.298;2022-10-26T07:08:00;95995.25;;;16.90;78.25
7182;BME280;3632;42.724;23.298;2022-10-26T07:10:27;95991.47;;;16.85;78.49
7182;BME280;3632;42.724;23.298;2022-10-26T07:12:55;95990.09;;;16.90;78.53
7182;BME280;3632;42.724;23.298;2022-10-26T07:15:22;95984.53;;;16.95;78.85
7182;BME280;3632;42.724;23.298;2022-10-26T07:17:49;95983.34;;;17.17;77.33
7182;BME280;3632;42.724;23.298;2022-10-26T07:20:17;95996.09;;;17.18;77.32
7182;BME280;3632;42.724;23.298;2022-10-26T07:22:44;95993.53;;;17.18;77.78
7182;BME280;3632;42.724;23.298;2022-10-26T07:25:12;95988.16;;;17.29;77.42
7182;BME280;3632;42.724;23.298;2022-10-26T07:27:38;95967.69;;;17.28;77.13
7182;BME280;3632;42.724;23.298;2022-10-26T07:30:08;95903.88;;;16.95;76.77
7182;BME280;3632;42.724;23.298;2022-10-26T07:32:35;95946.22;;;17.37;76.63
7182;BME280;3632;42.724;23.298;2022-10-26T07:35:02;95980.09;;;17.69;75.74
7182;BME280;3632;42.724;23.298;2022-10-26T07:37:29;95988.88;;;17.76;75.60
7182;BME280;3632;42.724;23.298;2022-10-26T07:39:55;95975.22;;;18.02;74.38
7182;BME280;3632;42.724;23.298;2022-10-26T07:42:22;95988.44;;;17.99;74.38
7182;BME280;3632;42.724;23.298;2022-10-26T07:44:49;95816.84;;;16.98;74.47
7182;BME280;3632;42.724;23.298;2022-10-26T07:47:17;95961.59;;;17.92;74.48
7182;BME280;3632;42.724;23.298;2022-10-26T07:49:44;95980.88;;;18.23;73.44
7182;BME280;3632;42.724;23.298;2022-10-26T07:52:11;95977.84;;;18.27;73.45
7182;BME280;3632;42.724;23.298;2022-10-26T07:54:38;95939.25;;;18.00;73.55
7182;BME280;3632;42.724;23.298;2022-10-26T07:57:05;95969.84;;;18.56;70.37
7182;BME280;3632;42.724;23.298;2022-10-26T07:59:32;95971.06;;;18.70;69.39
7182;BME280;3632;42.724;23.298;2022-10-26T08:01:58;95971.38;;;18.67;69.77
7182;BME280;3632;42.724;23.298;2022-10-26T08:04:27;95972.38;;;18.74;69.51
7182;BME280;3632;42.724;23.298;2022-10-26T08:06:53;95961.38;;;18.72;68.81
7182;BME280;3632;42.724;23.298;2022-10-26T08:09:20;95971.31;;;18.85;68.66
7182;BME280;3632;42.724;23.298;2022-10-26T08:11:47;95973.06;;;18.84;68.47
7182;BME280;3632;42.724;23.298;2022-10-26T08:14:13;95971.22;;;19.02;68.61
7182;BME280;3632;42.724;23.298;2022-10-26T08:16:40;95972.56;;;19.14;68.01
7182;BME280;3632;42.724;23.298;2022-10-26T08:19:07;95975.38;;;19.29;67.62
7182;BME280;3632;42.724;23.298;2022-10-26T08:21:35;95993.72;;;19.44;66.68
7182;BME280;3632;42.724;23.298;2022-10-26T08:24:02;95949.09;;;19.42;66.33
7182;BME280;3632;42.724;23.298;2022-10-26T08:26:29;95960.94;;;19.60;64.61
7182;BME280;3632;42.724;23.298;2022-10-26T08:28:56;95958.34;;;19.52;64.78
7182;BME280;3632;42.724;23.298;2022-10-26T08:31:22;95960.31;;;19.67;64.19
7182;BME280;3632;42.724;23.298;2022-10-26T08:33:49;95868.09;;;19.17;63.84
7182;BME280;3632;42.724;23.298;2022-10-26T08:36:21;95960.69;;;19.88;63.23
7182;BME280;3632;42.724;23.298;2022-10-26T08:38:49;95961.84;;;20.01;62.70
7182;BME280;3632;42.724;23.298;2022-10-26T08:41:16;95951.81;;;20.23;62.62
7182;BME280;3632;42.724;23.298;2022-10-26T08:43:48;95958.28;;;20.51;58.69
7182;BME280;3632;42.724;23.298;2022-10-26T08:46:20;95916.84;;;20.43;58.00
7182;BME280;3632;42.724;23.298;2022-10-26T08:48:52;95956.78;;;20.73;57.62
7182;BME280;3632;42.724;23.298;2022-10-26T08:51:22;95931.00;;;20.87;58.38
7182;BME280;3632;42.724;23.298;2022-10-26T08:53:56;95964.94;;;21.17;56.55
7182;BME280;3632;42.724;23.298;2022-10-26T08:56:26;95971.19;;;21.30;55.97
7182;BME280;3632;42.724;23.298;2022-10-26T08:58:56;95946.31;;;21.44;55.80
7182;BME280;3632;42.724;23.298;2022-10-26T09:01:24;95961.56;;;21.70;54.36
7182;BME280;3632;42.724;23.298;2022-10-26T09:03:51;95960.91;;;21.76;54.40
7182;BME280;3632;42.724;23.298;2022-10-26T09:06:25;95950.94;;;22.10;53.53
7182;BME280;3632;42.724;23.298;2022-10-26T09:09:02;95934.63;;;22.02;51.81
7182;BME280;3632;42.724;23.298;2022-10-26T09:11:48;95948.72;;;22.45;52.18
7182;BME280;3632;42.724;23.298;2022-10-26T09:14:20;95956.50;;;22.59;50.48
7182;BME280;3632;42.724;23.298;2022-10-26T09:16:58;95957.03;;;22.77;49.15
7182;BME280;3632;42.724;23.298;2022-10-26T09:19:38;95948.22;;;22.93;48.71
7182;BME280;3632;42.724;23.298;2022-10-26T09:22:13;95952.91;;;23.12;48.22
7182;BME280;3632;42.724;23.298;2022-10-26T09:24:49;95954.38;;;23.36;47.25
7182;BME280;3632;42.724;23.298;2022-10-26T09:27:21;95947.47;;;23.58;47.14
7182;BME280;3632;42.724;23.298;2022-10-26T09:29:50;95950.66;;;23.96;45.74
7182;BME280;3632;42.724;23.298;2022-10-26T09:32:18;95955.97;;;23.88;44.82
7182;BME280;3632;42.724;23.298;2022-10-26T09:34:48;95952.75;;;24.28;45.22
7182;BME280;3632;42.724;23.298;2022-10-26T09:37:19;95871.72;;;24.17;44.92
7182;BME280;3632;42.724;23.298;2022-10-26T09:39:56;95931.59;;;24.93;43.67
7182;BME280;3632;42.724;23.298;2022-10-26T09:42:28;95933.91;;;25.16;42.02
7182;BME280;3632;42.724;23.298;2022-10-26T09:45:03;95922.16;;;25.40;41.99
7182;BME280;3632;42.724;23.298;2022-10-26T09:47:34;95930.88;;;25.60;42.08
7182;BME280;3632;42.724;23.298;2022-10-26T09:50:06;95934.50;;;25.66;41.67
7182;BME280;3632;42.724;23.298;2022-10-26T09:52:40;95924.31;;;25.90;40.28
7182;BME280;3632;42.724;23.298;2022-10-26T09:55:11;95929.13;;;25.93;38.51
7182;BME280;3632;42.724;23.298;2022-10-26T09:57:39;95925.50;;;25.81;39.32
7182;BME280;3632;42.724;23.298;2022-10-26T10:00:12;95821.25;;;25.67;38.97
7182;BME280;3632;42.724;23.298;2022-10-26T10:02:40;95918.28;;;26.62;38.28
7182;BME280;3632;42.724;23.298;2022-10-26T10:05:23;95884.25;;;26.89;39.40
7182;BME280;3632;42.724;23.298;2022-10-26T10:07:50;95912.59;;;27.11;40.66
7182;BME280;3632;42.724;23.298;2022-10-26T10:10:21;95910.00;;;26.92;40.31
7182;BME280;3632;42.724;23.298;2022-10-26T10:12:49;95914.03;;;26.88;40.19
7182;BME280;3632;42.724;23.298;2022-10-26T10:15:19;95901.69;;;27.08;38.59
7182;BME280;3632;42.724;23.298;2022-10-26T10:17:47;95898.34;;;27.45;38.45
7182;BME280;3632;42.724;23.298;2022-10-26T10:20:19;95829.06;;;27.03;38.37
7182;BME280;3632;42.724;23.298;2022-10-26T10:22:54;95893.34;;;27.75;38.05
7182;BME280;3632;42.724;23.298;2022-10-26T10:25:33;95827.31;;;27.28;38.23
7182;BME280;3632;42.724;23.298;2022-10-26T10:28:00;95891.50;;;27.76;37.32
7182;BME280;3632;42.724;23.298;2022-10-26T10:30:29;95859.50;;;27.74;38.23
7182;BME280;3632;42.724;23.298;2022-10-26T10:33:05;95885.63;;;27.87;38.45
7182;BME280;3632;42.724;23.298;2022-10-26T10:35:32;95886.25;;;28.07;37.96
7182;BME280;3632;42.724;23.298;2022-10-26T10:37:59;95880.34;;;28.18;37.90
7182;BME280;3632;42.724;23.298;2022-10-26T10:40:29;95796.56;;;27.55;37.11
7182;BME280;3632;42.724;23.298;2022-10-26T10:43:05;95880.13;;;28.20;37.06
7182;BME280;3632;42.724;23.298;2022-10-26T10:45:33;95870.91;;;28.35;34.94
7182;BME280;3632;42.724;23.298;2022-10-26T10:48:04;95862.16;;;28.23;36.51
7182;BME280;3632;42.724;23.298;2022-10-26T10:50:50;95870.88;;;28.42;36.56
7182;BME280;3632;42.724;23.298;2022-10-26T10:53:20;95874.00;;;28.75;35.78
7182;BME280;3632;42.724;23.298;2022-10-26T10:56:01;95865.72;;;28.90;33.91
7182;BME280;3632;42.724;23.298;2022-10-26T10:58:37;95865.31;;;28.93;35.57
7182;BME280;3632;42.724;23.298;2022-10-26T11:01:12;95861.06;;;29.10;34.94
7182;BME280;3632;42.724;23.298;2022-10-26T11:03:46;95862.78;;;29.16;33.48
7182;BME280;3632;42.724;23.298;2022-10-26T11:06:21;95854.47;;;29.37;34.20
7182;BME280;3632;42.724;23.298;2022-10-26T11:08:53;95767.59;;;29.09;34.06
7182;BME280;3632;42.724;23.298;2022-10-26T11:11:26;95853.53;;;29.91;32.66
7182;BME280;3632;42.724;23.298;2022-10-26T11:13:57;95851.56;;;29.87;32.50
7182;BME280;3632;42.724;23.298;2022-10-26T11:16:31;95848.47;;;29.90;32.45
7182;BME280;3632;42.724;23.298;2022-10-26T11:19:01;95829.97;;;29.97;32.29
7182;BME280;3632;42.724;23.298;2022-10-26T11:21:34;95818.78;;;30.24;32.20
7182;BME280;3632;42.724;23.298;2022-10-26T11:24:10;95846.81;;;30.54;30.85
7182;BME280;3632;42.724;23.298;2022-10-26T11:26:45;95848.63;;;30.65;31.00
7182;BME280;3632;42.724;23.298;2022-10-26T11:29:32;95844.56;;;30.85;30.21
7182;BME280;3632;42.724;23.298;2022-10-26T11:32:08;95838.19;;;30.93;29.68
7182;BME280;3632;42.724;23.298;2022-10-26T11:34:43;95756.06;;;30.68;29.40
7182;BME280;3632;42.724;23.298;2022-10-26T11:37:17;95832.00;;;31.27;29.55
7182;BME280;3632;42.724;23.298;2022-10-26T11:40:00;95803.22;;;31.09;28.35
7182;BME280;3632;42.724;23.298;2022-10-26T11:42:32;95795.44;;;31.03;28.45
7182;BME280;3632;42.724;23.298;2022-10-26T11:45:08;95839.53;;;31.36;28.13
7182;BME280;3632;42.724;23.298;2022-10-26T11:47:41;95834.31;;;31.24;28.10
7182;BME280;3632;42.724;23.298;2022-10-26T11:50:15;95828.78;;;31.54;28.23
7182;BME280;3632;42.724;23.298;2022-10-26T11:52:46;95823.81;;;31.69;26.79
7182;BME280;3632;42.724;23.298;2022-10-26T11:55:15;95738.13;;;31.21;27.18
7182;BME280;3632;42.724;23.298;2022-10-26T11:57:44;95834.50;;;31.79;27.33
7182;BME280;3632;42.724;23.298;2022-10-26T12:00:15;95825.25;;;31.77;26.61
7182;BME280;3632;42.724;23.298;2022-10-26T12:02:46;95817.91;;;31.95;26.11
7182;BME280;3632;42.724;23.298;2022-10-26T12:05:22;95820.59;;;32.00;25.72
7182;BME280;3632;42.724;23.298;2022-10-26T12:07:53;95829.09;;;32.02;26.16
7182;BME280;3632;42.724;23.298;2022-10-26T12:10:25;95812.34;;;32.25;26.09
7182;BME280;3632;42.724;23.298;2022-10-26T12:13:00;95810.63;;;32.36;25.38
7182;BME280;3632;42.724;23.298;2022-10-26T12:15:33;95819.28;;;32.14;25.70
7182;BME280;3632;42.724;23.298;2022-10-26T12:18:12;95803.38;;;32.09;25.27
7182;BME280;3632;42.724;23.298;2022-10-26T12:21:04;95807.59;;;32.27;25.62
7182;BME280;3632;42.724;23.298;2022-10-26T12:23:34;95809.66;;;32.42;24.57
7182;BME280;3632;42.724;23.298;2022-10-26T12:26:37;95815.97;;;32.41;24.69
7182;BME280;3632;42.724;23.298;2022-10-26T12:29:39;95804.25;;;32.70;24.25
7182;BME280;3632;42.724;23.298;2022-10-26T12:35:38;95802.34;;;32.66;24.79
7182;BME280;3632;42.724;23.298;2022-10-26T12:41:22;95799.84;;;32.59;25.04
7182;BME280;3632;42.724;23.298;2022-10-26T12:43:54;95795.81;;;32.35;24.87
7182;BME280;3632;42.724;23.298;2022-10-26T12:46:40;95807.06;;;32.25;25.22
7182;BME280;3632;42.724;23.298;2022-10-26T12:52:17;95805.66;;;32.78;23.18
7182;BME280;3632;42.724;23.298;2022-10-26T12:54:53;95813.41;;;32.84;23.27
7182;BME280;3632;42.724;23.298;2022-10-26T12:57:27;95811.16;;;32.98;24.24
7182;BME280;3632;42.724;23.298;2022-10-26T12:59:59;95808.94;;;33.12;24.07
7182;BME280;3632;42.724;23.298;2022-10-26T13:02:49;95810.47;;;33.29;23.33
7182;BME280;3632;42.724;23.298;2022-10-26T13:05:48;95815.31;;;33.37;22.99
7182;BME280;3632;42.724;23.298;2022-10-26T13:08:23;95809.34;;;33.47;22.42
7182;BME280;3632;42.724;23.298;2022-10-26T13:11:01;95810.59;;;33.66;21.52
7182;BME280;3632;42.724;23.298;2022-10-26T13:13:30;95812.19;;;34.04;21.83
7182;BME280;3632;42.724;23.298;2022-10-26T13:15:59;95782.72;;;34.22;20.86
7182;BME280;3632;42.724;23.298;2022-10-26T13:18:28;95627.91;;;33.36;20.49
7182;BME280;3632;42.724;23.298;2022-10-26T13:21:07;95818.41;;;35.19;19.88
7182;BME280;3632;42.724;23.298;2022-10-26T13:23:39;95816.88;;;35.33;18.73
7182;BME280;3632;42.724;23.298;2022-10-26T13:26:09;95806.34;;;35.79;18.73
7182;BME280;3632;42.724;23.298;2022-10-26T13:28:48;95815.59;;;35.86;19.18
7182;BME280;3632;42.724;23.298;2022-10-26T13:31:52;95812.69;;;36.08;19.11
7182;BME280;3632;42.724;23.298;2022-10-26T13:34:25;95748.50;;;35.81;18.60
7182;BME280;3632;42.724;23.298;2022-10-26T13:37:00;95803.34;;;36.66;18.65
7182;BME280;3632;42.724;23.298;2022-10-26T13:39:30;95822.75;;;36.61;18.47
7182;BME280;3632;42.724;23.298;2022-10-26T13:41:59;95809.41;;;36.72;17.56
7182;BME280;3632;42.724;23.298;2022-10-26T13:44:29;95812.13;;;36.61;18.00